Flight Track Log - Related Links

Times and Time Zones

All times are in EDT time to prevent confusion due to time zone crossing. See the SKW6330 flight status page for this flight to view local times or setup timezone preferences in your user account.

Time Position Orientation Groundspeed Altitude Reporting Facility
EDT Latitude Longitude Course Direction KTS MPH feet Rate Location/Type
Wed 10:59:05 PM 36.7892 -119.7475 193° South 130 150 1,500  Level Oakland Center
Wed 11:00:06 PM 36.7608 -119.7556 193° South 167 192 2,700 1,230 Climbing Oakland Center
Wed 11:01:07 PM 36.7164 -119.7214 148° Southeast 189 217 4,000 1,475 Climbing Oakland Center
Wed 11:02:08 PM 36.6647 -119.6969 159° South 198 228 5,700 1,659 Climbing Oakland Center
Wed 11:03:10 PM 36.6158 -119.6719 158° South 190 219 7,400 1,756 Climbing Oakland Center
Wed 11:04:11 PM 36.5561 -119.6469 161° South 190 219 9,300 1,623 Climbing Oakland Center
Wed 11:05:12 PM 36.5081 -119.6194 155° Southeast 190 219 10,700 1,475 Climbing Oakland Center
Wed 11:06:13 PM 36.4547 -119.5928 158° South 203 234 12,300 1,328 Climbing Oakland Center
Wed 11:07:14 PM 36.4019 -119.5642 156° South 206 237 13,400 1,131 Climbing Oakland Center
Wed 11:08:15 PM 36.3478 -119.5361 157° South 210 242 14,600 1,131 Climbing Oakland Center
Wed 11:09:16 PM 36.2925 -119.5072 157° South 215 247 15,700 927 Climbing Oakland Center
Wed 11:10:18 PM 36.2353 -119.4775 157° South 224 258 16,500 829 Climbing Oakland Center
Wed 11:11:19 PM 36.1775 -119.4425 154° Southeast 232 267 17,400 787 Climbing Oakland Center
Wed 11:12:20 PM 36.1169 -119.4075 155° Southeast 239 275 18,100 787 Climbing Oakland Center
Wed 11:13:21 PM 36.0569 -119.3719 154° Southeast 239 275 19,000 836 Climbing Oakland Center
Wed 11:14:22 PM 35.9983 -119.3372 154° Southeast 236 272 19,800 639 Climbing Oakland Center
Wed 11:15:23 PM 35.9381 -119.3031 155° Southeast 236 272 20,300 541 Climbing Oakland Center
Wed 11:16:24 PM 35.8594 -119.2575 155° Southeast 251 289 20,900 295 Climbing Oakland Center
Wed 11:17:25 PM 35.7939 -119.2186 154° Southeast 258 297 20,900  Level Oakland Center
Wed 11:18:26 PM 35.7286 -119.1789 154° Southeast 260 299 20,900  Level Oakland Center
Wed 11:19:28 PM 35.6619 -119.1408 155° Southeast 262 302 20,900  Level Oakland Center
Wed 11:20:16 PM 35.6117 -119.1119 155° Southeast 258 297 20,900  Level Los Angeles Center
Wed 11:21:18 PM 35.5469 -119.0747 155° Southeast 256 295 20,900  Level Los Angeles Center
Wed 11:22:20 PM 35.4831 -119.0378 155° Southeast 256 295 20,900  Level Los Angeles Center
Wed 11:23:21 PM 35.4214 -119.0011 154° Southeast 249 287 20,900  Level Los Angeles Center
Wed 11:24:23 PM 35.3706 -118.9719 155° Southeast 250 288 20,900  Level Los Angeles Center
Wed 11:25:25 PM 35.2956 -118.9281 154° Southeast 248 285 20,900  Level Los Angeles Center
Wed 11:26:27 PM 35.2192 -118.8833 154° Southeast 252 290 20,900  Level Los Angeles Center
Wed 11:27:28 PM 35.1547 -118.8478 156° South 255 293 20,900  Level Los Angeles Center
Wed 11:28:30 PM 35.0886 -118.8114 156° South 258 297 20,900  Level Los Angeles Center
Wed 11:29:32 PM 35.0239 -118.7733 154° Southeast 257 296 20,900 -242 Level Los Angeles Center
Wed 11:30:34 PM 34.9592 -118.7361 155° Southeast 257 296 20,400 -726 Descending Los Angeles Center
Wed 11:31:36 PM 34.8911 -118.6986 156° South 264 304 19,400 -927 Descending Los Angeles Center
Wed 11:32:37 PM 34.8281 -118.6625 155° Southeast 249 287 18,500 -927 Descending Los Angeles Center
Wed 11:33:39 PM 34.7553 -118.6203 155° Southeast 241 277 17,500 -1,065 Descending Los Angeles Center
Wed 11:34:41 PM 34.6928 -118.5839 154° Southeast 248 285 16,300 -1,210 Descending Los Angeles Center
Wed 11:35:43 PM 34.6306 -118.5500 156° South 245 282 15,000 -1,113 Descending Los Angeles Center
Wed 11:36:45 PM 34.5711 -118.5125 153° Southeast 239 275 14,000 -976 Descending Los Angeles Center
Wed 11:37:46 PM 34.5142 -118.4789 154° Southeast 227 261 13,000 -927 Descending Los Angeles Center
Wed 11:38:48 PM 34.4600 -118.4478 155° Southeast 215 247 12,100 -1,016 Descending Los Angeles Center
Wed 11:39:50 PM 34.4069 -118.4172 155° Southeast 211 243 10,900 -1,306 Descending Los Angeles Center
Wed 11:40:52 PM 34.3447 -118.3814 155° Southeast 207 238 9,400 -1,355 Descending Los Angeles Center
Wed 11:41:54 PM 34.2917 -118.3519 155° Southeast 207 238 8,100 -1,366 Descending Los Angeles Center
Wed 11:42:55 PM 34.2394 -118.3197 153° Southeast 209 241 6,600 -1,024 Descending Los Angeles Center
Wed 11:43:57 PM 34.1972 -118.2942 153° Southeast 211 243 6,000 -532 Descending Los Angeles Center
Wed 11:44:59 PM 34.1283 -118.2533 154° Southeast 224 258 5,500 -919 Descending Los Angeles Center
Wed 11:46:01 PM 34.0597 -118.2442 174° South 242 278 4,100 -1,403 Descending Los Angeles Center
Wed 11:47:03 PM 33.9886 -118.2864 206° Southwest 244 281 2,600 -1,452 Descending Los Angeles Center

Login

Don't have an account? Register now (free) for customized features, flight alerts, and more!